sensor_id;sensor_type;location;lat;lon;timestamp;P1;durP1;ratioP1;P2;durP2;ratioP2
1839;SDS011;920;48.944;9.148;2024-01-15T00:00:20;23.47;;;11.57;;
1839;SDS011;920;48.944;9.148;2024-01-15T00:02:47;23.27;;;10.80;;
1839;SDS011;920;48.944;9.148;2024-01-15T00:05:14;24.83;;;10.80;;
1839;SDS011;920;48.944;9.148;2024-01-15T00:07:42;25.47;;;11.00;;
1839;SDS011;920;48.944;9.148;2024-01-15T00:10:09;22.90;;;10.03;;
1839;SDS011;920;48.944;9.148;2024-01-15T00:12:35;26.60;;;11.40;;
1839;SDS011;920;48.944;9.148;2024-01-15T00:15:02;22.37;;;10.90;;
1839;SDS011;920;48.944;9.148;2024-01-15T00:17:30;20.57;;;9.73;;
1839;SDS011;920;48.944;9.148;2024-01-15T00:19:56;20.73;;;10.43;;
1839;SDS011;920;48.944;9.148;2024-01-15T00:22:24;22.50;;;10.07;;
1839;SDS011;920;48.944;9.148;2024-01-15T00:24:53;21.17;;;10.03;;
1839;SDS011;920;48.944;9.148;2024-01-15T00:27:20;21.70;;;10.20;;
1839;SDS011;920;48.944;9.148;2024-01-15T00:29:47;22.97;;;10.17;;
1839;SDS011;920;48.944;9.148;2024-01-15T00:32:15;26.53;;;11.83;;
1839;SDS011;920;48.944;9.148;2024-01-15T00:34:42;25.47;;;11.97;;
1839;SDS011;920;48.944;9.148;2024-01-15T00:37:09;22.97;;;11.90;;
1839;SDS011;920;48.944;9.148;2024-01-15T00:39:35;20.80;;;10.30;;
1839;SDS011;920;48.944;9.148;2024-01-15T00:42:05;24.33;;;11.00;;
1839;SDS011;920;48.944;9.148;2024-01-15T00:44:32;25.77;;;11.50;;
1839;SDS011;920;48.944;9.148;2024-01-15T00:46:59;24.13;;;10.70;;
1839;SDS011;920;48.944;9.148;2024-01-15T00:49:27;25.37;;;10.50;;
1839;SDS011;920;48.944;9.148;2024-01-15T00:51:53;27.93;;;11.60;;
1839;SDS011;920;48.944;9.148;2024-01-15T00:54:20;22.10;;;10.27;;
1839;SDS011;920;48.944;9.148;2024-01-15T00:56:47;22.80;;;11.23;;
1839;SDS011;920;48.944;9.148;2024-01-15T00:59:15;23.67;;;11.50;;
1839;SDS011;920;48.944;9.148;2024-01-15T01:01:42;24.70;;;10.90;;
1839;SDS011;920;48.944;9.148;2024-01-15T01:04:11;25.20;;;11.07;;
1839;SDS011;920;48.944;9.148;2024-01-15T01:06:38;23.30;;;10.20;;
1839;SDS011;920;48.944;9.148;2024-01-15T01:09:05;23.33;;;10.60;;
1839;SDS011;920;48.944;9.148;2024-01-15T01:11:31;24.00;;;11.03;;
1839;SDS011;920;48.944;9.148;2024-01-15T01:13:58;22.80;;;12.17;;
1839;SDS011;920;48.944;9.148;2024-01-15T01:16:27;24.30;;;11.40;;
1839;SDS011;920;48.944;9.148;2024-01-15T01:18:54;25.70;;;12.30;;
1839;SDS011;920;48.944;9.148;2024-01-15T01:21:20;27.30;;;12.70;;
1839;SDS011;920;48.944;9.148;2024-01-15T01:23:47;24.80;;;11.90;;
1839;SDS011;920;48.944;9.148;2024-01-15T01:26:15;25.80;;;12.80;;
1839;SDS011;920;48.944;9.148;2024-01-15T01:28:42;27.40;;;12.07;;
1839;SDS011;920;48.944;9.148;2024-01-15T01:31:09;28.27;;;13.20;;
1839;SDS011;920;48.944;9.148;2024-01-15T01:33:37;22.87;;;11.00;;
1839;SDS011;920;48.944;9.148;2024-01-15T01:36:06;28.63;;;11.67;;
1839;SDS011;920;48.944;9.148;2024-01-15T01:38:34;24.50;;;11.77;;
1839;SDS011;920;48.944;9.148;2024-01-15T01:41:00;21.97;;;10.13;;
1839;SDS011;920;48.944;9.148;2024-01-15T01:43:27;26.30;;;11.37;;
1839;SDS011;920;48.944;9.148;2024-01-15T01:45:54;24.47;;;11.77;;
1839;SDS011;920;48.944;9.148;2024-01-15T01:48:22;23.07;;;10.60;;
1839;SDS011;920;48.944;9.148;2024-01-15T01:50:51;25.33;;;11.13;;
1839;SDS011;920;48.944;9.148;2024-01-15T01:53:18;23.43;;;11.17;;
1839;SDS011;920;48.944;9.148;2024-01-15T01:55:45;21.20;;;9.90;;
1839;SDS011;920;48.944;9.148;2024-01-15T01:58:12;23.57;;;11.70;;
1839;SDS011;920;48.944;9.148;2024-01-15T02:00:39;22.30;;;9.90;;
1839;SDS011;920;48.944;9.148;2024-01-15T02:03:06;26.03;;;11.93;;
1839;SDS011;920;48.944;9.148;2024-01-15T02:05:33;21.00;;;9.87;;
1839;SDS011;920;48.944;9.148;2024-01-15T02:08:04;24.70;;;11.10;;
1839;SDS011;920;48.944;9.148;2024-01-15T02:10:31;23.70;;;9.80;;
1839;SDS011;920;48.944;9.148;2024-01-15T02:12:58;20.10;;;9.87;;
1839;SDS011;920;48.944;9.148;2024-01-15T02:15:24;21.03;;;9.93;;
1839;SDS011;920;48.944;9.148;2024-01-15T02:17:58;21.60;;;10.40;;
1839;SDS011;920;48.944;9.148;2024-01-15T02:20:25;20.00;;;9.57;;
1839;SDS011;920;48.944;9.148;2024-01-15T02:22:52;20.73;;;10.30;;
1839;SDS011;920;48.944;9.148;2024-01-15T02:25:20;21.30;;;10.60;;
1839;SDS011;920;48.944;9.148;2024-01-15T02:27:47;19.10;;;9.60;;
1839;SDS011;920;48.944;9.148;2024-01-15T02:30:17;20.53;;;9.50;;
1839;SDS011;920;48.944;9.148;2024-01-15T02:32:44;19.60;;;9.40;;
1839;SDS011;920;48.944;9.148;2024-01-15T02:35:11;22.57;;;10.50;;
1839;SDS011;920;48.944;9.148;2024-01-15T02:37:38;21.97;;;9.57;;
1839;SDS011;920;48.944;9.148;2024-01-15T02:40:05;20.00;;;9.40;;
1839;SDS011;920;48.944;9.148;2024-01-15T02:42:34;19.37;;;9.23;;
1839;SDS011;920;48.944;9.148;2024-01-15T02:45:01;23.87;;;9.77;;
1839;SDS011;920;48.944;9.148;2024-01-15T02:47:27;22.13;;;9.80;;
1839;SDS011;920;48.944;9.148;2024-01-15T02:49:54;18.37;;;9.60;;
1839;SDS011;920;48.944;9.148;2024-01-15T02:52:21;19.23;;;8.93;;
1839;SDS011;920;48.944;9.148;2024-01-15T02:54:48;20.13;;;9.50;;
1839;SDS011;920;48.944;9.148;2024-01-15T02:57:15;17.70;;;8.57;;
1839;SDS011;920;48.944;9.148;2024-01-15T02:59:43;17.33;;;8.77;;
1839;SDS011;920;48.944;9.148;2024-01-15T03:02:09;17.97;;;9.30;;
1839;SDS011;920;48.944;9.148;2024-01-15T03:04:36;20.60;;;9.40;;
1839;SDS011;920;48.944;9.148;2024-01-15T03:07:03;17.20;;;9.17;;
1839;SDS011;920;48.944;9.148;2024-01-15T03:09:30;20.33;;;9.73;;
1839;SDS011;920;48.944;9.148;2024-01-15T03:11:57;20.27;;;9.60;;
1839;SDS011;920;48.944;9.148;2024-01-15T03:14:24;19.57;;;10.40;;
1839;SDS011;920;48.944;9.148;2024-01-15T03:16:52;22.13;;;9.60;;
1839;SDS011;920;48.944;9.148;2024-01-15T03:19:20;21.53;;;9.87;;
1839;SDS011;920;48.944;9.148;2024-01-15T03:21:46;17.27;;;8.50;;
1839;SDS011;920;48.944;9.148;2024-01-15T03:24:13;21.70;;;11.07;;
1839;SDS011;920;48.944;9.148;2024-01-15T03:26:40;21.10;;;10.50;;
1839;SDS011;920;48.944;9.148;2024-01-15T03:29:08;19.90;;;9.50;;
1839;SDS011;920;48.944;9.148;2024-01-15T03:31:35;18.60;;;9.43;;
1839;SDS011;920;48.944;9.148;2024-01-15T03:34:03;16.83;;;8.90;;
1839;SDS011;920;48.944;9.148;2024-01-15T03:36:30;20.10;;;9.03;;
1839;SDS011;920;48.944;9.148;2024-01-15T03:38:56;19.73;;;8.73;;
1839;SDS011;920;48.944;9.148;2024-01-15T03:41:23;16.67;;;9.20;;
1839;SDS011;920;48.944;9.148;2024-01-15T03:43:50;19.00;;;9.07;;
1839;SDS011;920;48.944;9.148;2024-01-15T03:46:17;18.53;;;9.17;;
1839;SDS011;920;48.944;9.148;2024-01-15T03:48:43;18.23;;;9.10;;
1839;SDS011;920;48.944;9.148;2024-01-15T03:51:12;18.30;;;9.40;;
1839;SDS011;920;48.944;9.148;2024-01-15T03:53:38;22.60;;;9.87;;
1839;SDS011;920;48.944;9.148;2024-01-15T03:56:05;20.00;;;9.40;;
1839;SDS011;920;48.944;9.148;2024-01-15T03:58:32;22.10;;;11.03;;
1839;SDS011;920;48.944;9.148;2024-01-15T04:00:59;19.47;;;10.10;;
1839;SDS011;920;48.944;9.148;2024-01-15T04:03:26;20.60;;;9.60;;
1839;SDS011;920;48.944;9.148;2024-01-15T04:05:52;21.53;;;9.70;;
1839;SDS011;920;48.944;9.148;2024-01-15T04:08:21;17.60;;;9.07;;
1839;SDS011;920;48.944;9.148;2024-01-15T04:10:47;18.40;;;10.13;;
1839;SDS011;920;48.944;9.148;2024-01-15T04:13:14;18.70;;;9.63;;
1839;SDS011;920;48.944;9.148;2024-01-15T04:15:41;15.37;;;8.30;;
1839;SDS011;920;48.944;9.148;2024-01-15T04:18:08;19.80;;;9.10;;
1839;SDS011;920;48.944;9.148;2024-01-15T04:20:35;13.97;;;7.40;;
1839;SDS011;920;48.944;9.148;2024-01-15T04:23:02;13.47;;;8.07;;
1839;SDS011;920;48.944;9.148;2024-01-15T04:25:30;16.17;;;8.50;;
1839;SDS011;920;48.944;9.148;2024-01-15T04:27:57;14.23;;;8.03;;
1839;SDS011;920;48.944;9.148;2024-01-15T04:30:24;17.23;;;8.57;;
1839;SDS011;920;48.944;9.148;2024-01-15T04:32:51;16.60;;;8.77;;
1839;SDS011;920;48.944;9.148;2024-01-15T04:35:18;16.10;;;8.50;;
1839;SDS011;920;48.944;9.148;2024-01-15T04:37:45;12.90;;;7.67;;
1839;SDS011;920;48.944;9.148;2024-01-15T04:40:12;13.60;;;7.90;;
1839;SDS011;920;48.944;9.148;2024-01-15T04:42:41;14.20;;;7.67;;
1839;SDS011;920;48.944;9.148;2024-01-15T04:45:08;16.40;;;8.80;;
1839;SDS011;920;48.944;9.148;2024-01-15T04:47:35;15.20;;;8.00;;
1839;SDS011;920;48.944;9.148;2024-01-15T04:50:02;13.20;;;7.90;;
1839;SDS011;920;48.944;9.148;2024-01-15T04:52:29;16.33;;;8.43;;
1839;SDS011;920;48.944;9.148;2024-01-15T04:54:56;13.77;;;7.53;;
1839;SDS011;920;48.944;9.148;2024-01-15T04:57:22;17.03;;;8.93;;
1839;SDS011;920;48.944;9.148;2024-01-15T04:59:51;14.77;;;7.83;;
1839;SDS011;920;48.944;9.148;2024-01-15T05:02:17;15.10;;;8.80;;
1839;SDS011;920;48.944;9.148;2024-01-15T05:04:44;16.03;;;8.20;;
1839;SDS011;920;48.944;9.148;2024-01-15T05:07:10;17.50;;;9.60;;
1839;SDS011;920;48.944;9.148;2024-01-15T05:09:37;18.53;;;9.27;;
1839;SDS011;920;48.944;9.148;2024-01-15T05:12:04;15.03;;;8.17;;
1839;SDS011;920;48.944;9.148;2024-01-15T05:14:31;15.90;;;8.93;;
1839;SDS011;920;48.944;9.148;2024-01-15T05:16:59;14.60;;;7.90;;
1839;SDS011;920;48.944;9.148;2024-01-15T05:19:26;14.37;;;7.30;;
1839;SDS011;920;48.944;9.148;2024-01-15T05:21:53;14.63;;;7.20;;
1839;SDS011;920;48.944;9.148;2024-01-15T05:24:20;18.80;;;9.90;;
1839;SDS011;920;48.944;9.148;2024-01-15T05:26:46;16.20;;;8.67;;
1839;SDS011;920;48.944;9.148;2024-01-15T05:29:13;14.47;;;7.57;;
1839;SDS011;920;48.944;9.148;2024-01-15T05:31:40;17.23;;;10.23;;
1839;SDS011;920;48.944;9.148;2024-01-15T05:34:08;14.47;;;8.43;;
1839;SDS011;920;48.944;9.148;2024-01-15T05:36:35;14.57;;;8.43;;
1839;SDS011;920;48.944;9.148;2024-01-15T05:39:01;13.50;;;9.07;;
1839;SDS011;920;48.944;9.148;2024-01-15T05:41:28;14.60;;;9.57;;
1839;SDS011;920;48.944;9.148;2024-01-15T05:43:55;15.87;;;8.87;;
1839;SDS011;920;48.944;9.148;2024-01-15T05:46:22;12.67;;;7.30;;
1839;SDS011;920;48.944;9.148;2024-01-15T05:48:48;12.70;;;7.23;;
1839;SDS011;920;48.944;9.148;2024-01-15T05:51:16;11.80;;;7.70;;
1839;SDS011;920;48.944;9.148;2024-01-15T05:53:43;14.70;;;8.60;;
1839;SDS011;920;48.944;9.148;2024-01-15T05:56:10;11.47;;;6.47;;
1839;SDS011;920;48.944;9.148;2024-01-15T05:58:37;13.00;;;7.83;;
1839;SDS011;920;48.944;9.148;2024-01-15T06:01:04;12.00;;;6.47;;
1839;SDS011;920;48.944;9.148;2024-01-15T06:03:31;9.93;;;6.20;;
1839;SDS011;920;48.944;9.148;2024-01-15T06:05:58;11.80;;;6.10;;
1839;SDS011;920;48.944;9.148;2024-01-15T06:08:26;11.43;;;7.77;;
1839;SDS011;920;48.944;9.148;2024-01-15T06:10:53;10.50;;;5.60;;
1839;SDS011;920;48.944;9.148;2024-01-15T06:13:20;10.47;;;5.43;;
1839;SDS011;920;48.944;9.148;2024-01-15T06:15:46;9.27;;;5.13;;
1839;SDS011;920;48.944;9.148;2024-01-15T06:18:13;8.53;;;5.10;;
1839;SDS011;920;48.944;9.148;2024-01-15T06:20:40;8.53;;;4.67;;
1839;SDS011;920;48.944;9.148;2024-01-15T06:23:07;8.37;;;5.10;;
1839;SDS011;920;48.944;9.148;2024-01-15T06:25:35;9.27;;;5.10;;
1839;SDS011;920;48.944;9.148;2024-01-15T06:28:02;10.10;;;6.03;;
1839;SDS011;920;48.944;9.148;2024-01-15T06:30:30;13.43;;;5.93;;
1839;SDS011;920;48.944;9.148;2024-01-15T06:32:56;9.90;;;6.00;;
1839;SDS011;920;48.944;9.148;2024-01-15T06:35:23;11.67;;;6.07;;
1839;SDS011;920;48.944;9.148;2024-01-15T06:37:50;13.10;;;6.67;;
1839;SDS011;920;48.944;9.148;2024-01-15T06:40:17;9.63;;;5.97;;
1839;SDS011;920;48.944;9.148;2024-01-15T06:42:45;11.73;;;6.20;;
1839;SDS011;920;48.944;9.148;2024-01-15T06:45:11;10.27;;;6.40;;
1839;SDS011;920;48.944;9.148;2024-01-15T06:47:38;13.00;;;6.87;;
1839;SDS011;920;48.944;9.148;2024-01-15T06:50:05;10.47;;;6.20;;
1839;SDS011;920;48.944;9.148;2024-01-15T06:52:32;11.80;;;6.10;;
1839;SDS011;920;48.944;9.148;2024-01-15T06:54:59;10.33;;;5.80;;
1839;SDS011;920;48.944;9.148;2024-01-15T06:57:26;10.90;;;6.00;;
1839;SDS011;920;48.944;9.148;2024-01-15T06:59:54;11.27;;;6.77;;
1839;SDS011;920;48.944;9.148;2024-01-15T07:02:21;16.53;;;10.43;;
1839;SDS011;920;48.944;9.148;2024-01-15T07:04:47;13.17;;;8.60;;
1839;SDS011;920;48.944;9.148;2024-01-15T07:07:14;10.77;;;6.27;;
1839;SDS011;920;48.944;9.148;2024-01-15T07:09:41;12.83;;;7.00;;
1839;SDS011;920;48.944;9.148;2024-01-15T07:12:08;11.63;;;6.00;;
1839;SDS011;920;48.944;9.148;2024-01-15T07:14:34;9.80;;;5.80;;
1839;SDS011;920;48.944;9.148;2024-01-15T07:17:03;9.93;;;5.73;;
1839;SDS011;920;48.944;9.148;2024-01-15T07:19:29;12.70;;;5.57;;
1839;SDS011;920;48.944;9.148;2024-01-15T07:21:56;9.57;;;5.60;;
1839;SDS011;920;48.944;9.148;2024-01-15T07:24:23;10.50;;;5.80;;
1839;SDS011;920;48.944;9.148;2024-01-15T07:26:50;10.80;;;5.73;;
1839;SDS011;920;48.944;9.148;2024-01-15T07:29:16;9.43;;;6.03;;
1839;SDS011;920;48.944;9.148;2024-01-15T07:31:47;10.50;;;5.90;;
1839;SDS011;920;48.944;9.148;2024-01-15T07:34:15;11.90;;;5.90;;
1839;SDS011;920;48.944;9.148;2024-01-15T07:36:43;12.80;;;5.43;;
1839;SDS011;920;48.944;9.148;2024-01-15T07:39:10;11.30;;;6.17;;
1839;SDS011;920;48.944;9.148;2024-01-15T07:41:37;10.50;;;5.80;;
1839;SDS011;920;48.944;9.148;2024-01-15T07:44:05;12.20;;;6.20;;
1839;SDS011;920;48.944;9.148;2024-01-15T07:46:32;10.20;;;5.83;;
1839;SDS011;920;48.944;9.148;2024-01-15T07:48:58;12.17;;;5.83;;
1839;SDS011;920;48.944;9.148;2024-01-15T07:51:27;9.97;;;5.83;;
1839;SDS011;920;48.944;9.148;2024-01-15T07:53:54;8.30;;;5.43;;
1839;SDS011;920;48.944;9.148;2024-01-15T07:56:21;9.30;;;5.77;;
1839;SDS011;920;48.944;9.148;2024-01-15T07:58:48;9.97;;;5.80;;
1839;SDS011;920;48.944;9.148;2024-01-15T08:01:14;10.50;;;6.13;;
1839;SDS011;920;48.944;9.148;2024-01-15T08:03:42;11.50;;;5.80;;
1839;SDS011;920;48.944;9.148;2024-01-15T08:06:09;10.63;;;6.17;;
1839;SDS011;920;48.944;9.148;2024-01-15T08:08:37;11.97;;;6.40;;
1839;SDS011;920;48.944;9.148;2024-01-15T08:11:04;12.53;;;7.00;;
1839;SDS011;920;48.944;9.148;2024-01-15T08:13:31;14.10;;;8.20;;
1839;SDS011;920;48.944;9.148;2024-01-15T08:15:58;10.77;;;6.90;;
1839;SDS011;920;48.944;9.148;2024-01-15T08:18:27;12.70;;;7.33;;
1839;SDS011;920;48.944;9.148;2024-01-15T08:20:54;14.90;;;8.03;;
1839;SDS011;920;48.944;9.148;2024-01-15T08:23:21;13.27;;;7.60;;
1839;SDS011;920;48.944;9.148;2024-01-15T08:25:49;13.67;;;7.43;;
1839;SDS011;920;48.944;9.148;2024-01-15T08:28:16;12.27;;;7.20;;
1839;SDS011;920;48.944;9.148;2024-01-15T08:30:42;14.63;;;7.37;;
1839;SDS011;920;48.944;9.148;2024-01-15T08:33:09;11.77;;;7.07;;
1839;SDS011;920;48.944;9.148;2024-01-15T08:35:36;12.70;;;7.00;;
1839;SDS011;920;48.944;9.148;2024-01-15T08:38:03;9.83;;;7.07;;
1839;SDS011;920;48.944;9.148;2024-01-15T08:40:30;9.70;;;5.93;;
1839;SDS011;920;48.944;9.148;2024-01-15T08:42:58;14.33;;;7.90;;
1839;SDS011;920;48.944;9.148;2024-01-15T08:45:25;10.10;;;6.67;;
1839;SDS011;920;48.944;9.148;2024-01-15T08:47:51;9.10;;;6.00;;
1839;SDS011;920;48.944;9.148;2024-01-15T08:50:18;9.60;;;6.03;;
1839;SDS011;920;48.944;9.148;2024-01-15T08:52:45;11.20;;;6.33;;
1839;SDS011;920;48.944;9.148;2024-01-15T08:55:12;9.23;;;5.70;;
1839;SDS011;920;48.944;9.148;2024-01-15T08:57:39;10.20;;;6.17;;
1839;SDS011;920;48.944;9.148;2024-01-15T09:00:08;10.10;;;5.87;;
1839;SDS011;920;48.944;9.148;2024-01-15T09:02:35;9.10;;;5.20;;
1839;SDS011;920;48.944;9.148;2024-01-15T09:05:02;7.97;;;5.47;;
1839;SDS011;920;48.944;9.148;2024-01-15T09:07:30;10.00;;;5.33;;
1839;SDS011;920;48.944;9.148;2024-01-15T09:09:57;11.00;;;6.20;;
1839;SDS011;920;48.944;9.148;2024-01-15T09:12:24;11.93;;;5.60;;
1839;SDS011;920;48.944;9.148;2024-01-15T09:14:51;9.57;;;5.70;;
1839;SDS011;920;48.944;9.148;2024-01-15T09:17:20;9.33;;;5.03;;
1839;SDS011;920;48.944;9.148;2024-01-15T09:19:48;9.10;;;5.57;;
1839;SDS011;920;48.944;9.148;2024-01-15T09:22:15;7.90;;;4.77;;
1839;SDS011;920;48.944;9.148;2024-01-15T09:24:43;9.03;;;5.80;;
1839;SDS011;920;48.944;9.148;2024-01-15T09:27:10;8.97;;;5.30;;
1839;SDS011;920;48.944;9.148;2024-01-15T09:29:37;8.90;;;5.10;;
1839;SDS011;920;48.944;9.148;2024-01-15T09:32:07;10.93;;;5.70;;
1839;SDS011;920;48.944;9.148;2024-01-15T09:34:35;6.77;;;4.53;;
1839;SDS011;920;48.944;9.148;2024-01-15T09:37:02;8.10;;;5.27;;
1839;SDS011;920;48.944;9.148;2024-01-15T09:39:29;11.33;;;7.70;;
1839;SDS011;920;48.944;9.148;2024-01-15T09:41:57;9.70;;;5.70;;
1839;SDS011;920;48.944;9.148;2024-01-15T09:44:24;13.13;;;5.37;;
1839;SDS011;920;48.944;9.148;2024-01-15T09:46:52;8.30;;;5.30;;
1839;SDS011;920;48.944;9.148;2024-01-15T09:49:20;7.70;;;5.40;;
1839;SDS011;920;48.944;9.148;2024-01-15T09:51:48;7.73;;;4.60;;
1839;SDS011;920;48.944;9.148;2024-01-15T09:54:15;11.33;;;5.10;;
1839;SDS011;920;48.944;9.148;2024-01-15T09:56:42;7.33;;;4.37;;
1839;SDS011;920;48.944;9.148;2024-01-15T09:59:11;5.73;;;3.43;;
1839;SDS011;920;48.944;9.148;2024-01-15T10:01:41;7.53;;;4.13;;
1839;SDS011;920;48.944;9.148;2024-01-15T10:04:08;6.80;;;3.97;;
1839;SDS011;920;48.944;9.148;2024-01-15T10:06:35;6.50;;;4.20;;
1839;SDS011;920;48.944;9.148;2024-01-15T10:09:03;7.90;;;4.00;;
1839;SDS011;920;48.944;9.148;2024-01-15T10:11:30;6.07;;;3.63;;
1839;SDS011;920;48.944;9.148;2024-01-15T10:13:57;6.13;;;3.57;;
1839;SDS011;920;48.944;9.148;2024-01-15T10:16:23;7.30;;;4.00;;
1839;SDS011;920;48.944;9.148;2024-01-15T10:18:50;5.67;;;3.40;;
1839;SDS011;920;48.944;9.148;2024-01-15T10:21:17;7.10;;;3.90;;
1839;SDS011;920;48.944;9.148;2024-01-15T10:23:44;6.57;;;4.00;;
1839;SDS011;920;48.944;9.148;2024-01-15T10:26:12;5.47;;;3.53;;
1839;SDS011;920;48.944;9.148;2024-01-15T10:28:39;6.50;;;3.87;;
1839;SDS011;920;48.944;9.148;2024-01-15T10:31:07;5.67;;;3.70;;
1839;SDS011;920;48.944;9.148;2024-01-15T10:33:35;7.27;;;4.10;;
1839;SDS011;920;48.944;9.148;2024-01-15T10:36:02;9.60;;;5.10;;
1839;SDS011;920;48.944;9.148;2024-01-15T10:38:29;6.70;;;4.20;;
1839;SDS011;920;48.944;9.148;2024-01-15T10:40:56;7.20;;;4.80;;
1839;SDS011;920;48.944;9.148;2024-01-15T10:43:24;7.83;;;4.97;;
1839;SDS011;920;48.944;9.148;2024-01-15T10:45:51;6.20;;;4.03;;
1839;SDS011;920;48.944;9.148;2024-01-15T10:48:18;5.50;;;3.60;;
1839;SDS011;920;48.944;9.148;2024-01-15T10:50:46;5.83;;;3.37;;
1839;SDS011;920;48.944;9.148;2024-01-15T10:53:13;5.30;;;3.53;;
1839;SDS011;920;48.944;9.148;2024-01-15T10:55:41;6.60;;;3.70;;
1839;SDS011;920;48.944;9.148;2024-01-15T10:58:09;5.90;;;3.30;;
1839;SDS011;920;48.944;9.148;2024-01-15T11:00:37;8.30;;;3.50;;
1839;SDS011;920;48.944;9.148;2024-01-15T11:03:05;7.63;;;3.57;;
1839;SDS011;920;48.944;9.148;2024-01-15T11:05:33;6.40;;;3.30;;
1839;SDS011;920;48.944;9.148;2024-01-15T11:08:01;7.57;;;3.87;;
1839;SDS011;920;48.944;9.148;2024-01-15T11:10:40;6.40;;;4.00;;
1839;SDS011;920;48.944;9.148;2024-01-15T11:13:08;5.77;;;3.60;;
1839;SDS011;920;48.944;9.148;2024-01-15T11:18:22;6.47;;;4.10;;
1839;SDS011;920;48.944;9.148;2024-01-15T11:23:50;6.90;;;3.63;;
1839;SDS011;920;48.944;9.148;2024-01-15T11:26:26;5.40;;;3.77;;
1839;SDS011;920;48.944;9.148;2024-01-15T11:28:54;6.23;;;4.53;;
1839;SDS011;920;48.944;9.148;2024-01-15T11:31:27;7.80;;;4.80;;
1839;SDS011;920;48.944;9.148;2024-01-15T11:33:54;6.53;;;3.93;;
1839;SDS011;920;48.944;9.148;2024-01-15T11:36:21;6.30;;;3.70;;
1839;SDS011;920;48.944;9.148;2024-01-15T11:38:48;6.27;;;3.60;;
1839;SDS011;920;48.944;9.148;2024-01-15T11:41:15;5.70;;;4.40;;
1839;SDS011;920;48.944;9.148;2024-01-15T11:43:42;7.30;;;4.23;;
1839;SDS011;920;48.944;9.148;2024-01-15T11:46:10;6.20;;;3.93;;
1839;SDS011;920;48.944;9.148;2024-01-15T11:48:42;6.90;;;4.17;;
1839;SDS011;920;48.944;9.148;2024-01-15T11:51:10;6.10;;;3.97;;
1839;SDS011;920;48.944;9.148;2024-01-15T11:53:40;7.00;;;4.43;;
1839;SDS011;920;48.944;9.148;2024-01-15T11:56:11;10.77;;;6.10;;
1839;SDS011;920;48.944;9.148;2024-01-15T11:58:40;8.53;;;4.60;;
1839;SDS011;920;48.944;9.148;2024-01-15T12:01:08;6.40;;;4.37;;
1839;SDS011;920;48.944;9.148;2024-01-15T12:03:35;5.53;;;3.57;;
1839;SDS011;920;48.944;9.148;2024-01-15T12:06:04;7.13;;;4.33;;
1839;SDS011;920;48.944;9.148;2024-01-15T12:08:31;7.47;;;4.60;;
1839;SDS011;920;48.944;9.148;2024-01-15T12:10:58;6.23;;;4.17;;
1839;SDS011;920;48.944;9.148;2024-01-15T12:13:26;5.60;;;4.10;;
1839;SDS011;920;48.944;9.148;2024-01-15T12:15:54;6.50;;;4.03;;
1839;SDS011;920;48.944;9.148;2024-01-15T12:18:20;5.80;;;3.90;;
1839;SDS011;920;48.944;9.148;2024-01-15T12:20:47;7.20;;;4.30;;
1839;SDS011;920;48.944;9.148;2024-01-15T12:23:15;6.47;;;4.57;;
1839;SDS011;920;48.944;9.148;2024-01-15T12:25:42;8.07;;;5.00;;
1839;SDS011;920;48.944;9.148;2024-01-15T12:28:09;6.00;;;4.23;;
1839;SDS011;920;48.944;9.148;2024-01-15T12:30:36;7.17;;;4.33;;
1839;SDS011;920;48.944;9.148;2024-01-15T12:33:05;8.67;;;5.63;;
1839;SDS011;920;48.944;9.148;2024-01-15T12:35:33;5.17;;;4.00;;
1839;SDS011;920;48.944;9.148;2024-01-15T12:38:00;8.37;;;4.30;;
1839;SDS011;920;48.944;9.148;2024-01-15T12:40:30;12.13;;;4.50;;
1839;SDS011;920;48.944;9.148;2024-01-15T12:42:57;5.20;;;3.57;;
1839;SDS011;920;48.944;9.148;2024-01-15T12:45:24;6.53;;;3.80;;
1839;SDS011;920;48.944;9.148;2024-01-15T12:47:52;9.00;;;3.47;;
1839;SDS011;920;48.944;9.148;2024-01-15T12:50:19;7.37;;;4.10;;
1839;SDS011;920;48.944;9.148;2024-01-15T12:52:46;6.20;;;3.80;;
1839;SDS011;920;48.944;9.148;2024-01-15T12:55:13;5.40;;;3.60;;
1839;SDS011;920;48.944;9.148;2024-01-15T12:57:41;4.93;;;3.20;;
1839;SDS011;920;48.944;9.148;2024-01-15T13:00:10;7.00;;;4.50;;
1839;SDS011;920;48.944;9.148;2024-01-15T13:02:37;7.23;;;4.30;;
1839;SDS011;920;48.944;9.148;2024-01-15T13:05:05;7.07;;;4.77;;
1839;SDS011;920;48.944;9.148;2024-01-15T13:07:32;5.83;;;4.00;;
1839;SDS011;920;48.944;9.148;2024-01-15T13:09:59;6.03;;;3.73;;
1839;SDS011;920;48.944;9.148;2024-01-15T13:12:26;4.50;;;3.40;;
1839;SDS011;920;48.944;9.148;2024-01-15T13:14:54;6.33;;;4.07;;
1839;SDS011;920;48.944;9.148;2024-01-15T13:17:21;5.87;;;3.50;;
1839;SDS011;920;48.944;9.148;2024-01-15T13:19:48;6.80;;;4.07;;
1839;SDS011;920;48.944;9.148;2024-01-15T13:22:15;8.00;;;4.37;;
1839;SDS011;920;48.944;9.148;2024-01-15T13:24:41;7.10;;;4.50;;
1839;SDS011;920;48.944;9.148;2024-01-15T13:27:09;7.80;;;4.33;;
1839;SDS011;920;48.944;9.148;2024-01-15T13:29:37;7.57;;;4.37;;
1839;SDS011;920;48.944;9.148;2024-01-15T13:32:05;6.93;;;4.17;;
1839;SDS011;920;48.944;9.148;2024-01-15T13:34:32;6.37;;;4.10;;
1839;SDS011;920;48.944;9.148;2024-01-15T13:37:00;6.03;;;3.90;;
1839;SDS011;920;48.944;9.148;2024-01-15T13:39:26;6.07;;;4.13;;
1839;SDS011;920;48.944;9.148;2024-01-15T13:41:54;7.00;;;4.10;;
1839;SDS011;920;48.944;9.148;2024-01-15T13:44:21;8.40;;;5.30;;
1839;SDS011;920;48.944;9.148;2024-01-15T13:46:48;6.63;;;4.50;;
1839;SDS011;920;48.944;9.148;2024-01-15T13:49:16;7.77;;;5.10;;
1839;SDS011;920;48.944;9.148;2024-01-15T13:51:43;10.20;;;6.00;;
1839;SDS011;920;48.944;9.148;2024-01-15T13:54:10;10.90;;;5.60;;
1839;SDS011;920;48.944;9.148;2024-01-15T13:56:36;7.73;;;5.20;;
1839;SDS011;920;48.944;9.148;2024-01-15T13:59:03;8.40;;;5.00;;
1839;SDS011;920;48.944;9.148;2024-01-15T14:01:30;7.83;;;5.20;;
1839;SDS011;920;48.944;9.148;2024-01-15T14:03:58;8.33;;;5.30;;
1839;SDS011;920;48.944;9.148;2024-01-15T14:06:26;8.80;;;5.50;;
1839;SDS011;920;48.944;9.148;2024-01-15T14:08:53;9.30;;;5.50;;
1839;SDS011;920;48.944;9.148;2024-01-15T14:11:19;8.90;;;5.73;;
1839;SDS011;920;48.944;9.148;2024-01-15T14:13:48;7.77;;;5.60;;
1839;SDS011;920;48.944;9.148;2024-01-15T14:16:14;10.20;;;5.70;;
1839;SDS011;920;48.944;9.148;2024-01-15T14:18:41;8.00;;;5.20;;
1839;SDS011;920;48.944;9.148;2024-01-15T14:21:08;9.33;;;5.80;;
1839;SDS011;920;48.944;9.148;2024-01-15T14:23:37;8.13;;;6.13;;
1839;SDS011;920;48.944;9.148;2024-01-15T14:26:03;9.17;;;6.17;;
1839;SDS011;920;48.944;9.148;2024-01-15T14:28:30;8.90;;;6.40;;
1839;SDS011;920;48.944;9.148;2024-01-15T14:30:57;11.37;;;6.93;;
1839;SDS011;920;48.944;9.148;2024-01-15T14:33:25;9.53;;;6.27;;
1839;SDS011;920;48.944;9.148;2024-01-15T14:35:52;10.00;;;6.67;;
1839;SDS011;920;48.944;9.148;2024-01-15T14:38:18;9.00;;;6.30;;
1839;SDS011;920;48.944;9.148;2024-01-15T14:40:47;11.23;;;6.80;;
1839;SDS011;920;48.944;9.148;2024-01-15T14:43:14;10.70;;;7.37;;
1839;SDS011;920;48.944;9.148;2024-01-15T14:45:41;11.63;;;7.17;;
1839;SDS011;920;48.944;9.148;2024-01-15T14:48:08;11.07;;;7.20;;
1839;SDS011;920;48.944;9.148;2024-01-15T14:50:35;12.30;;;6.83;;
1839;SDS011;920;48.944;9.148;2024-01-15T14:53:02;12.57;;;7.50;;
1839;SDS011;920;48.944;9.148;2024-01-15T14:55:29;12.97;;;7.77;;
1839;SDS011;920;48.944;9.148;2024-01-15T14:57:57;11.43;;;7.20;;
1839;SDS011;920;48.944;9.148;2024-01-15T15:00:23;9.63;;;6.30;;
1839;SDS011;920;48.944;9.148;2024-01-15T15:02:49;10.60;;;7.00;;
1839;SDS011;920;48.944;9.148;2024-01-15T15:05:16;10.00;;;7.07;;
1839;SDS011;920;48.944;9.148;2024-01-15T15:07:43;10.43;;;6.93;;
1839;SDS011;920;48.944;9.148;2024-01-15T15:10:10;11.17;;;6.77;;
1839;SDS011;920;48.944;9.148;2024-01-15T15:12:37;10.23;;;6.43;;
1839;SDS011;920;48.944;9.148;2024-01-15T15:15:06;8.80;;;6.53;;
1839;SDS011;920;48.944;9.148;2024-01-15T15:17:36;11.30;;;6.93;;
1839;SDS011;920;48.944;9.148;2024-01-15T15:20:03;10.63;;;7.10;;
1839;SDS011;920;48.944;9.148;2024-01-15T15:22:30;9.40;;;6.77;;
1839;SDS011;920;48.944;9.148;2024-01-15T15:24:57;11.17;;;7.13;;